sensor_id;sensor_type;location;lat;lon;timestamp;pressure;altitude;pressure_sealevel;temperature;humidity
65359;BME280;52491;45.900;6.346;2023-08-20T00:01:27;94247.66;;;29.11;32.55
65359;BME280;52491;45.900;6.346;2023-08-20T00:03:53;94244.16;;;29.11;32.44
65359;BME280;52491;45.900;6.346;2023-08-20T00:06:20;94243.13;;;29.07;32.62
65359;BME280;52491;45.900;6.346;2023-08-20T00:08:46;94238.84;;;29.06;32.56
65359;BME280;52491;45.900;6.346;2023-08-20T00:11:12;94246.59;;;29.07;32.65
65359;BME280;52491;45.900;6.346;2023-08-20T00:13:38;94248.50;;;29.07;32.35
65359;BME280;52491;45.900;6.346;2023-08-20T00:16:04;94243.13;;;29.07;32.41
65359;BME280;52491;45.900;6.346;2023-08-20T00:18:30;94251.47;;;29.05;32.63
65359;BME280;52491;45.900;6.346;2023-08-20T00:20:56;94241.78;;;29.04;32.70
65359;BME280;52491;45.900;6.346;2023-08-20T00:23:22;94253.38;;;29.05;32.39
65359;BME280;52491;45.900;6.346;2023-08-20T00:25:48;94241.78;;;29.04;32.45
65359;BME280;52491;45.900;6.346;2023-08-20T00:28:14;94248.00;;;29.05;32.50
65359;BME280;52491;45.900;6.346;2023-08-20T00:30:40;94256.03;;;29.05;32.42
65359;BME280;52491;45.900;6.346;2023-08-20T00:33:05;94261.41;;;29.05;32.57
65359;BME280;52491;45.900;6.346;2023-08-20T00:35:31;94248.25;;;29.03;32.41
65359;BME280;52491;45.900;6.346;2023-08-20T00:37:57;94253.63;;;29.03;32.41
65359;BME280;52491;45.900;6.346;2023-08-20T00:40:23;94256.31;;;29.03;32.15
65359;BME280;52491;45.900;6.346;2023-08-20T00:42:48;94259.78;;;29.04;32.29
65359;BME280;52491;45.900;6.346;2023-08-20T00:45:15;94260.06;;;29.02;32.35
65359;BME280;52491;45.900;6.346;2023-08-20T00:47:42;94260.06;;;29.02;32.58
65359;BME280;52491;45.900;6.346;2023-08-20T00:50:08;94258.44;;;29.01;32.28
65359;BME280;52491;45.900;6.346;2023-08-20T00:52:35;94263.53;;;29.03;32.10
65359;BME280;52491;45.900;6.346;2023-08-20T00:55:07;94265.16;;;29.04;32.31
65359;BME280;52491;45.900;6.346;2023-08-20T00:57:34;94261.69;;;29.03;32.13
65359;BME280;52491;45.900;6.346;2023-08-20T01:00:00;94264.59;;;29.01;32.35
65359;BME280;52491;45.900;6.346;2023-08-20T01:02:26;94261.91;;;29.01;32.31
65359;BME280;52491;45.900;6.346;2023-08-20T01:04:51;94270.81;;;29.02;32.33
65359;BME280;52491;45.900;6.346;2023-08-20T01:12:41;94267.28;;;29.01;32.35
65359;BME280;52491;45.900;6.346;2023-08-20T01:15:07;94266.78;;;28.99;32.24
65359;BME280;52491;45.900;6.346;2023-08-20T01:17:39;94271.88;;;29.01;31.99
65359;BME280;52491;45.900;6.346;2023-08-20T01:20:06;94268.38;;;29.00;32.05
65359;BME280;52491;45.900;6.346;2023-08-20T01:28:39;94272.44;;;28.98;32.10
65359;BME280;52491;45.900;6.346;2023-08-20T01:31:06;94274.31;;;28.97;31.98
65359;BME280;52491;45.900;6.346;2023-08-20T01:33:33;94275.91;;;28.98;31.94
65359;BME280;52491;45.900;6.346;2023-08-20T01:35:59;94275.13;;;28.98;32.41
65359;BME280;52491;45.900;6.346;2023-08-20T01:38:25;94275.91;;;28.98;32.06
65359;BME280;52491;45.900;6.346;2023-08-20T01:40:51;94276.75;;;28.99;32.14
65359;BME280;52491;45.900;6.346;2023-08-20T01:43:16;94273.22;;;28.98;31.86
65359;BME280;52491;45.900;6.346;2023-08-20T01:45:42;94269.47;;;28.99;32.02
65359;BME280;52491;45.900;6.346;2023-08-20T01:48:07;94276.75;;;28.99;32.11
65359;BME280;52491;45.900;6.346;2023-08-20T01:50:34;94272.97;;;29.00;32.05
65359;BME280;52491;45.900;6.346;2023-08-20T01:53:00;94274.06;;;28.99;31.93
65359;BME280;52491;45.900;6.346;2023-08-20T01:55:26;94276.75;;;28.99;31.63
65359;BME280;52491;45.900;6.346;2023-08-20T01:57:51;94269.75;;;28.98;31.74
65359;BME280;52491;45.900;6.346;2023-08-20T02:00:17;94268.16;;;28.97;31.82
65359;BME280;52491;45.900;6.346;2023-08-20T02:02:42;94268.16;;;28.97;31.84
65359;BME280;52491;45.900;6.346;2023-08-20T02:05:08;94273.53;;;28.97;31.64
65359;BME280;52491;45.900;6.346;2023-08-20T02:07:36;94275.13;;;28.98;31.66
65359;BME280;52491;45.900;6.346;2023-08-20T02:10:02;94276.22;;;28.97;32.10
65359;BME280;52491;45.900;6.346;2023-08-20T02:12:27;94273.78;;;28.95;31.67
65359;BME280;52491;45.900;6.346;2023-08-20T02:14:53;94275.69;;;28.95;31.99
65359;BME280;52491;45.900;6.346;2023-08-20T02:17:19;94273.00;;;28.95;31.87
65359;BME280;52491;45.900;6.346;2023-08-20T02:19:44;94275.69;;;28.95;31.78
65359;BME280;52491;45.900;6.346;2023-08-20T02:22:10;94281.06;;;28.95;32.01
65359;BME280;52491;45.900;6.346;2023-08-20T02:24:35;94273.28;;;28.93;31.67
65359;BME280;52491;45.900;6.346;2023-08-20T02:27:02;94282.63;;;28.96;31.85
65359;BME280;52491;45.900;6.346;2023-08-20T02:29:28;94280.81;;;29.26;31.30
65359;BME280;52491;45.900;6.346;2023-08-20T02:31:53;94278.88;;;29.31;31.16
65359;BME280;52491;45.900;6.346;2023-08-20T02:34:19;94276.19;;;29.31;30.94
65359;BME280;52491;45.900;6.346;2023-08-20T02:36:44;94282.06;;;29.33;30.82
65359;BME280;52491;45.900;6.346;2023-08-20T02:39:10;94278.88;;;29.31;31.10
65359;BME280;52491;45.900;6.346;2023-08-20T02:41:35;94282.66;;;29.30;31.07
65359;BME280;52491;45.900;6.346;2023-08-20T02:44:02;94283.34;;;29.12;31.63
65359;BME280;52491;45.900;6.346;2023-08-20T02:46:28;94286.66;;;28.98;31.68
65359;BME280;52491;45.900;6.346;2023-08-20T02:48:53;94281.34;;;28.93;31.57
65359;BME280;52491;45.900;6.346;2023-08-20T02:51:19;94285.41;;;28.91;31.64
65359;BME280;52491;45.900;6.346;2023-08-20T02:53:44;94278.41;;;28.90;31.78
65359;BME280;52491;45.900;6.346;2023-08-20T02:56:10;94282.97;;;28.89;31.84
65359;BME280;52491;45.900;6.346;2023-08-20T02:58:35;94284.56;;;28.90;32.00
65359;BME280;52491;45.900;6.346;2023-08-20T03:01:01;94283.78;;;28.90;31.80
65359;BME280;52491;45.900;6.346;2023-08-20T03:03:27;94279.19;;;28.90;31.90
65359;BME280;52491;45.900;6.346;2023-08-20T03:05:53;94284.56;;;28.90;31.96
65359;BME280;52491;45.900;6.346;2023-08-20T03:08:18;94280.03;;;28.91;32.16
65359;BME280;52491;45.900;6.346;2023-08-20T03:10:44;94280.81;;;28.91;31.54
65359;BME280;52491;45.900;6.346;2023-08-20T03:13:09;94279.19;;;28.90;31.55
65359;BME280;52491;45.900;6.346;2023-08-20T03:15:35;94284.56;;;28.90;31.90
65359;BME280;52491;45.900;6.346;2023-08-20T03:18:00;94282.19;;;28.89;31.70
65359;BME280;52491;45.900;6.346;2023-08-20T03:20:26;94278.69;;;28.88;31.96
65359;BME280;52491;45.900;6.346;2023-08-20T03:22:53;94275.22;;;28.88;31.86
65359;BME280;52491;45.900;6.346;2023-08-20T03:25:19;94271.44;;;28.89;31.95
65359;BME280;52491;45.900;6.346;2023-08-20T03:27:45;94279.75;;;28.87;31.95
65359;BME280;52491;45.900;6.346;2023-08-20T03:30:10;94274.13;;;28.89;31.76
65359;BME280;52491;45.900;6.346;2023-08-20T03:32:36;94272.25;;;28.89;31.76
65359;BME280;52491;45.900;6.346;2023-08-20T03:35:02;94282.97;;;28.89;31.95
65359;BME280;52491;45.900;6.346;2023-08-20T03:37:28;94277.91;;;28.88;31.95
65359;BME280;52491;45.900;6.346;2023-08-20T03:39:53;94279.50;;;28.89;31.58
65359;BME280;52491;45.900;6.346;2023-08-20T03:42:19;94279.50;;;28.89;31.60
65359;BME280;52491;45.900;6.346;2023-08-20T03:44:45;94278.69;;;28.88;31.88
65359;BME280;52491;45.900;6.346;2023-08-20T03:47:10;94275.22;;;28.88;31.58
65359;BME280;52491;45.900;6.346;2023-08-20T03:49:37;94281.66;;;28.87;31.51
65359;BME280;52491;45.900;6.346;2023-08-20T03:52:02;94283.53;;;28.86;31.83
65359;BME280;52491;45.900;6.346;2023-08-20T03:54:29;94289.19;;;28.85;31.66
65359;BME280;52491;45.900;6.346;2023-08-20T03:56:55;94288.13;;;28.86;31.60
65359;BME280;52491;45.900;6.346;2023-08-20T03:59:21;94281.94;;;28.85;31.55
65359;BME280;52491;45.900;6.346;2023-08-20T04:01:46;94283.00;;;28.84;31.80
65359;BME280;52491;45.900;6.346;2023-08-20T04:04:12;94285.91;;;28.93;31.36
65359;BME280;52491;45.900;6.346;2023-08-20T04:06:38;94277.84;;;28.93;31.64
65359;BME280;52491;45.900;6.346;2023-08-20T04:09:04;94285.91;;;28.93;31.61
65359;BME280;52491;45.900;6.346;2023-08-20T04:11:30;94286.97;;;28.92;31.71
65359;BME280;52491;45.900;6.346;2023-08-20T04:13:56;94292.34;;;28.92;31.49
65359;BME280;52491;45.900;6.346;2023-08-20T04:16:21;94296.13;;;28.91;31.58
65359;BME280;52491;45.900;6.346;2023-08-20T04:18:47;94292.63;;;28.90;31.85
65359;BME280;52491;45.900;6.346;2023-08-20T04:21:13;94291.81;;;28.90;31.64
65359;BME280;52491;45.900;6.346;2023-08-20T04:23:38;94296.41;;;28.89;31.47
65359;BME280;52491;45.900;6.346;2023-08-20T04:26:04;94294.50;;;28.90;31.64
65359;BME280;52491;45.900;6.346;2023-08-20T04:28:30;94302.56;;;28.90;31.73
65359;BME280;52491;45.900;6.346;2023-08-20T04:30:55;94301.50;;;28.91;31.24
65359;BME280;52491;45.900;6.346;2023-08-20T04:33:21;94301.75;;;28.89;31.68
65359;BME280;52491;45.900;6.346;2023-08-20T04:35:48;94309.03;;;28.89;31.68
65359;BME280;52491;45.900;6.346;2023-08-20T04:38:17;94306.00;;;28.95;31.64
65359;BME280;52491;45.900;6.346;2023-08-20T04:40:46;94308.94;;;28.99;31.54
65359;BME280;52491;45.900;6.346;2023-08-20T04:43:13;94310.00;;;28.98;31.66
65359;BME280;52491;45.900;6.346;2023-08-20T04:45:38;94310.00;;;28.98;31.39
65359;BME280;52491;45.900;6.346;2023-08-20T04:48:04;94304.66;;;28.98;31.42
65359;BME280;52491;45.900;6.346;2023-08-20T04:50:30;94305.75;;;28.97;31.64
65359;BME280;52491;45.900;6.346;2023-08-20T04:52:55;94313.78;;;28.97;31.18
65359;BME280;52491;45.900;6.346;2023-08-20T04:55:21;94311.91;;;28.97;31.45
65359;BME280;52491;45.900;6.346;2023-08-20T04:57:46;94312.22;;;28.91;31.58
65359;BME280;52491;45.900;6.346;2023-08-20T05:00:12;94317.34;;;28.87;31.71
65359;BME280;52491;45.900;6.346;2023-08-20T05:02:37;94316.84;;;28.85;31.66
65359;BME280;52491;45.900;6.346;2023-08-20T05:05:03;94318.50;;;28.76;31.33
65359;BME280;52491;45.900;6.346;2023-08-20T05:07:29;94316.69;;;28.66;31.54
65359;BME280;52491;45.900;6.346;2023-08-20T05:09:54;94319.72;;;28.60;31.53
65359;BME280;52491;45.900;6.346;2023-08-20T05:12:20;94320.28;;;28.51;31.65
65359;BME280;52491;45.900;6.346;2023-08-20T05:14:45;94322.22;;;28.46;31.47
65359;BME280;52491;45.900;6.346;2023-08-20T05:17:11;94318.72;;;28.40;31.48
65359;BME280;52491;45.900;6.346;2023-08-20T05:19:37;94319.00;;;28.33;31.90
65359;BME280;52491;45.900;6.346;2023-08-20T05:22:02;94316.63;;;28.32;31.87
65359;BME280;52491;45.900;6.346;2023-08-20T05:24:28;94317.94;;;28.34;31.67
65359;BME280;52491;45.900;6.346;2023-08-20T05:27:13;94320.66;;;28.29;31.89
65359;BME280;52491;45.900;6.346;2023-08-20T05:29:40;94323.94;;;28.16;32.08
65359;BME280;52491;45.900;6.346;2023-08-20T05:32:07;94323.41;;;28.09;32.16
65359;BME280;52491;45.900;6.346;2023-08-20T05:34:32;94329.09;;;28.02;32.57
65359;BME280;52491;45.900;6.346;2023-08-20T05:36:58;94328.28;;;28.02;32.65
65359;BME280;52491;45.900;6.346;2023-08-20T05:39:24;94322.13;;;28.01;32.55
65359;BME280;52491;45.900;6.346;2023-08-20T05:41:54;94323.72;;;28.07;32.56
65359;BME280;52491;45.900;6.346;2023-08-20T05:44:20;94319.69;;;28.10;32.49
65359;BME280;52491;45.900;6.346;2023-08-20T05:46:46;94326.94;;;28.09;32.33
65359;BME280;52491;45.900;6.346;2023-08-20T05:49:13;94316.47;;;28.08;32.85
65359;BME280;52491;45.900;6.346;2023-08-20T05:51:43;94320.25;;;28.02;32.69
65359;BME280;52491;45.900;6.346;2023-08-20T05:54:09;94329.91;;;27.98;32.80
65359;BME280;52491;45.900;6.346;2023-08-20T05:56:35;94324.59;;;27.93;32.76
65359;BME280;52491;45.900;6.346;2023-08-20T05:59:00;94326.44;;;27.92;32.90
65359;BME280;52491;45.900;6.346;2023-08-20T06:01:26;94329.97;;;27.87;33.16
65359;BME280;52491;45.900;6.346;2023-08-20T06:03:51;94331.56;;;27.83;33.56
65359;BME280;52491;45.900;6.346;2023-08-20T06:06:17;94327.28;;;27.82;33.60
65359;BME280;52491;45.900;6.346;2023-08-20T06:08:43;94335.06;;;27.79;33.79
65359;BME280;52491;45.900;6.346;2023-08-20T06:11:08;94327.84;;;27.79;33.83
65359;BME280;52491;45.900;6.346;2023-08-20T06:13:34;94329.44;;;27.80;34.02
65359;BME280;52491;45.900;6.346;2023-08-20T06:15:59;94335.88;;;27.79;34.00
65359;BME280;52491;45.900;6.346;2023-08-20T06:18:25;94330.53;;;27.79;34.38
65359;BME280;52491;45.900;6.346;2023-08-20T06:20:50;94335.06;;;27.79;34.53
65359;BME280;52491;45.900;6.346;2023-08-20T06:23:16;94335.31;;;27.77;34.64
65359;BME280;52491;45.900;6.346;2023-08-20T06:25:41;94328.63;;;27.80;34.77
65359;BME280;52491;45.900;6.346;2023-08-20T06:28:08;94324.88;;;27.81;35.16
65359;BME280;52491;45.900;6.346;2023-08-20T06:30:35;94324.59;;;27.82;34.90
65359;BME280;52491;45.900;6.346;2023-08-20T06:33:00;94332.34;;;27.84;35.10
65359;BME280;52491;45.900;6.346;2023-08-20T06:35:26;94323.53;;;27.83;35.57
65359;BME280;52491;45.900;6.346;2023-08-20T06:37:51;94320.84;;;27.83;35.68
65359;BME280;52491;45.900;6.346;2023-08-20T06:40:17;94324.59;;;27.87;35.82
65359;BME280;52491;45.900;6.346;2023-08-20T06:42:42;94320.56;;;27.90;35.63
65359;BME280;52491;45.900;6.346;2023-08-20T06:45:08;94321.34;;;27.96;35.72
65359;BME280;52491;45.900;6.346;2023-08-20T06:47:34;94322.13;;;28.01;35.84
65359;BME280;52491;45.900;6.346;2023-08-20T06:50:00;94327.75;;;28.05;35.53
65359;BME280;52491;45.900;6.346;2023-08-20T06:52:25;94322.63;;;28.08;35.64
65359;BME280;52491;45.900;6.346;2023-08-20T06:54:51;94326.94;;;28.09;35.68
65359;BME280;52491;45.900;6.346;2023-08-20T06:57:16;94329.06;;;28.13;35.55
65359;BME280;52491;45.900;6.346;2023-08-20T06:59:42;94327.69;;;28.15;35.64
65359;BME280;52491;45.900;6.346;2023-08-20T07:02:09;94330.09;;;28.17;35.62
65359;BME280;52491;45.900;6.346;2023-08-20T07:04:35;94318.81;;;28.20;35.47
65359;BME280;52491;45.900;6.346;2023-08-20T07:07:01;94328.75;;;28.19;35.39
65359;BME280;52491;45.900;6.346;2023-08-20T07:09:26;94321.22;;;28.21;35.19
65359;BME280;52491;45.900;6.346;2023-08-20T07:11:52;94324.72;;;28.22;35.30
65359;BME280;52491;45.900;6.346;2023-08-20T07:14:17;94324.44;;;28.23;35.45
65359;BME280;52491;45.900;6.346;2023-08-20T07:16:43;94322.28;;;28.25;35.25
65359;BME280;52491;45.900;6.346;2023-08-20T07:19:08;94315.84;;;28.26;35.18
65359;BME280;52491;45.900;6.346;2023-08-20T07:21:34;94323.59;;;28.28;35.36
65359;BME280;52491;45.900;6.346;2023-08-20T07:24:00;94316.34;;;28.28;35.46
65359;BME280;52491;45.900;6.346;2023-08-20T07:26:26;94316.09;;;28.30;35.52
65359;BME280;52491;45.900;6.346;2023-08-20T07:28:51;94316.63;;;28.32;35.66
65359;BME280;52491;45.900;6.346;2023-08-20T07:31:30;94319.81;;;28.34;35.50
65359;BME280;52491;45.900;6.346;2023-08-20T07:33:57;94320.91;;;28.33;35.47
65359;BME280;52491;45.900;6.346;2023-08-20T07:36:24;94314.44;;;28.34;35.67
65359;BME280;52491;45.900;6.346;2023-08-20T07:38:51;94318.75;;;28.35;35.39
65359;BME280;52491;45.900;6.346;2023-08-20T07:41:17;94325.44;;;28.38;35.33
65359;BME280;52491;45.900;6.346;2023-08-20T07:43:45;94323.81;;;28.37;35.30
65359;BME280;52491;45.900;6.346;2023-08-20T07:46:11;94317.09;;;28.39;35.31
65359;BME280;52491;45.900;6.346;2023-08-20T07:48:37;94324.09;;;28.40;35.23
65359;BME280;52491;45.900;6.346;2023-08-20T07:51:03;94321.13;;;28.42;35.23
65359;BME280;52491;45.900;6.346;2023-08-20T07:53:29;94323.56;;;28.43;35.20
65359;BME280;52491;45.900;6.346;2023-08-20T07:55:55;94329.72;;;28.44;35.33
65359;BME280;52491;45.900;6.346;2023-08-20T07:58:21;94325.16;;;28.44;35.30
65359;BME280;52491;45.900;6.346;2023-08-20T08:00:46;94328.38;;;28.46;35.33
65359;BME280;52491;45.900;6.346;2023-08-20T08:03:12;94323.81;;;28.47;35.29
65359;BME280;52491;45.900;6.346;2023-08-20T08:05:40;94322.44;;;28.49;34.87
65359;BME280;52491;45.900;6.346;2023-08-20T08:08:06;94332.09;;;28.50;34.80
65359;BME280;52491;45.900;6.346;2023-08-20T08:10:31;94328.34;;;28.51;35.03
65359;BME280;52491;45.900;6.346;2023-08-20T08:12:57;94328.06;;;28.53;35.06
65359;BME280;52491;45.900;6.346;2023-08-20T08:15:22;94332.63;;;28.52;34.87
65359;BME280;52491;45.900;6.346;2023-08-20T08:17:48;94325.38;;;28.53;34.98
65359;BME280;52491;45.900;6.346;2023-08-20T08:20:14;94325.09;;;28.54;34.72
65359;BME280;52491;45.900;6.346;2023-08-20T08:22:39;94324.31;;;28.54;34.82
65359;BME280;52491;45.900;6.346;2023-08-20T08:25:05;94325.09;;;28.54;34.81
65359;BME280;52491;45.900;6.346;2023-08-20T08:27:31;94327.78;;;28.54;34.66
65359;BME280;52491;45.900;6.346;2023-08-20T08:29:57;94323.75;;;28.57;34.53
65359;BME280;52491;45.900;6.346;2023-08-20T08:32:23;94323.75;;;28.57;34.88
65359;BME280;52491;45.900;6.346;2023-08-20T08:34:48;94330.72;;;28.58;34.77
65359;BME280;52491;45.900;6.346;2023-08-20T08:37:14;94321.84;;;28.58;34.66
65359;BME280;52491;45.900;6.346;2023-08-20T08:39:41;94319.97;;;28.58;35.13
65359;BME280;52491;45.900;6.346;2023-08-20T08:42:06;94328.03;;;28.58;34.71
65359;BME280;52491;45.900;6.346;2023-08-20T08:44:33;94326.13;;;28.59;34.68
65359;BME280;52491;45.900;6.346;2023-08-20T08:47:02;94322.41;;;28.60;34.64
65359;BME280;52491;45.900;6.346;2023-08-20T08:49:28;94322.13;;;28.56;34.77
65359;BME280;52491;45.900;6.346;2023-08-20T08:51:57;94320.78;;;28.59;34.43
65359;BME280;52491;45.900;6.346;2023-08-20T08:54:23;94321.56;;;28.59;34.80
65359;BME280;52491;45.900;6.346;2023-08-20T08:56:50;94320.22;;;28.62;34.46
65359;BME280;52491;45.900;6.346;2023-08-20T08:59:15;94322.09;;;28.61;34.59
65359;BME280;52491;45.900;6.346;2023-08-20T09:01:42;94318.63;;;28.61;34.80
65359;BME280;52491;45.900;6.346;2023-08-20T09:04:08;94318.31;;;28.62;34.42
65359;BME280;52491;45.900;6.346;2023-08-20T09:06:51;94318.59;;;28.66;34.71
65359;BME280;52491;45.900;6.346;2023-08-20T09:09:18;94314.28;;;28.65;34.82
65359;BME280;52491;45.900;6.346;2023-08-20T09:11:44;94314.28;;;28.65;34.71
65359;BME280;52491;45.900;6.346;2023-08-20T09:14:30;94310.53;;;28.66;34.64
65359;BME280;52491;45.900;6.346;2023-08-20T09:17:00;94311.09;;;28.63;34.63
65359;BME280;52491;45.900;6.346;2023-08-20T09:19:30;94303.84;;;28.63;34.35
65359;BME280;52491;45.900;6.346;2023-08-20T09:22:00;94306.53;;;28.63;34.80
65359;BME280;52491;45.900;6.346;2023-08-20T09:24:33;94299.00;;;28.65;34.51
65359;BME280;52491;45.900;6.346;2023-08-20T09:27:05;94300.31;;;28.68;34.63
65359;BME280;52491;45.900;6.346;2023-08-20T09:29:33;94295.75;;;28.68;34.62
65359;BME280;52491;45.900;6.346;2023-08-20T09:32:03;94298.94;;;28.70;34.73
65359;BME280;52491;45.900;6.346;2023-08-20T09:34:52;94294.91;;;28.73;34.61
65359;BME280;52491;45.900;6.346;2023-08-20T09:37:20;94291.19;;;28.69;34.60
65359;BME280;52491;45.900;6.346;2023-08-20T09:39:46;94292.78;;;28.70;34.79
65359;BME280;52491;45.900;6.346;2023-08-20T09:42:12;94292.78;;;28.70;34.60
65359;BME280;52491;45.900;6.346;2023-08-20T09:44:42;94293.59;;;28.70;34.73
65359;BME280;52491;45.900;6.346;2023-08-20T09:47:15;94288.22;;;28.70;34.50
65359;BME280;52491;45.900;6.346;2023-08-20T09:49:46;94293.31;;;28.72;34.91
65359;BME280;52491;45.900;6.346;2023-08-20T09:52:16;94280.69;;;28.72;34.93
65359;BME280;52491;45.900;6.346;2023-08-20T09:57:22;94282.28;;;28.73;35.01
65359;BME280;52491;45.900;6.346;2023-08-20T09:59:49;94280.69;;;28.72;34.80
65359;BME280;52491;45.900;6.346;2023-08-20T10:02:16;94279.09;;;28.71;34.69
65359;BME280;52491;45.900;6.346;2023-08-20T10:04:43;94286.34;;;28.71;34.83
65359;BME280;52491;45.900;6.346;2023-08-20T10:07:10;94280.16;;;28.70;34.70
65359;BME280;52491;45.900;6.346;2023-08-20T10:09:38;94277.22;;;28.72;34.53
65359;BME280;52491;45.900;6.346;2023-08-20T10:12:04;94272.66;;;28.72;34.92
65359;BME280;52491;45.900;6.346;2023-08-20T10:14:30;94270.50;;;28.74;34.95
65359;BME280;52491;45.900;6.346;2023-08-20T10:16:56;94266.72;;;28.75;34.76
65359;BME280;52491;45.900;6.346;2023-08-20T10:19:24;94269.13;;;28.77;34.86
65359;BME280;52491;45.900;6.346;2023-08-20T10:21:52;94269.13;;;28.77;34.53
65359;BME280;52491;45.900;6.346;2023-08-20T10:24:18;94270.72;;;28.78;34.80
65359;BME280;52491;45.900;6.346;2023-08-20T10:26:48;94266.44;;;28.77;34.71
65359;BME280;52491;45.900;6.346;2023-08-20T10:29:39;94264.25;;;28.79;34.83
65359;BME280;52491;45.900;6.346;2023-08-20T10:32:13;94264.56;;;28.77;34.83
65359;BME280;52491;45.900;6.346;2023-08-20T10:34:42;94254.63;;;28.78;34.95
65359;BME280;52491;45.900;6.346;2023-08-20T10:37:14;94261.59;;;28.79;34.51
65359;BME280;52491;45.900;6.346;2023-08-20T10:39:41;94255.41;;;28.78;34.92
65359;BME280;52491;45.900;6.346;2023-08-20T10:45:07;94257.59;;;28.76;34.52
65359;BME280;52491;45.900;6.346;2023-08-20T10:47:41;94252.78;;;28.73;34.98
65359;BME280;52491;45.900;6.346;2023-08-20T10:50:11;94254.41;;;28.74;34.77
65359;BME280;52491;45.900;6.346;2023-08-20T10:52:50;94249.81;;;28.75;34.91
65359;BME280;52491;45.900;6.346;2023-08-20T10:55:23;94243.66;;;28.74;35.04
65359;BME280;52491;45.900;6.346;2023-08-20T10:57:57;94240.19;;;28.74;35.18
65359;BME280;52491;45.900;6.346;2023-08-20T11:00:24;94235.88;;;28.73;35.21
65359;BME280;52491;45.900;6.346;2023-08-20T11:02:52;94239.59;;;28.82;35.32
65359;BME280;52491;45.900;6.346;2023-08-20T11:05:19;94239.50;;;28.87;35.00
65359;BME280;52491;45.900;6.346;2023-08-20T11:07:47;94229.03;;;28.91;34.86
65359;BME280;52491;45.900;6.346;2023-08-20T11:10:14;94228.03;;;28.82;35.21
65359;BME280;52491;45.900;6.346;2023-08-20T11:12:41;94235.28;;;28.81;35.23
65359;BME280;52491;45.900;6.346;2023-08-20T11:15:08;94234.22;;;28.82;35.01
65359;BME280;52491;45.900;6.346;2023-08-20T11:17:42;94217.81;;;28.84;35.22
65359;BME280;52491;45.900;6.346;2023-08-20T11:20:09;94218.59;;;28.84;35.24
65359;BME280;52491;45.900;6.346;2023-08-20T11:22:37;94223.47;;;28.82;35.42
65359;BME280;52491;45.900;6.346;2023-08-20T11:25:03;94224.28;;;28.83;35.09
65359;BME280;52491;45.900;6.346;2023-08-20T11:27:29;94221.28;;;28.84;35.25
65359;BME280;52491;45.900;6.346;2023-08-20T11:29:55;94217.25;;;28.87;35.16
65359;BME280;52491;45.900;6.346;2023-08-20T11:32:25;94218.88;;;28.88;35.16
65359;BME280;52491;45.900;6.346;2023-08-20T11:34:52;94219.13;;;28.86;35.21
65359;BME280;52491;45.900;6.346;2023-08-20T11:37:20;94210.81;;;28.88;35.05
65359;BME280;52491;45.900;6.346;2023-08-20T11:39:50;94215.34;;;28.87;35.12
65359;BME280;52491;45.900;6.346;2023-08-20T11:42:16;94211.59;;;28.88;35.05
65359;BME280;52491;45.900;6.346;2023-08-20T11:44:47;94212.41;;;28.89;35.42
65359;BME280;52491;45.900;6.346;2023-08-20T11:47:16;94208.63;;;28.90;35.47
65359;BME280;52491;45.900;6.346;2023-08-20T11:49:43;94203.25;;;28.90;35.25
65359;BME280;52491;45.900;6.346;2023-08-20T11:52:09;94212.41;;;28.89;35.04
65359;BME280;52491;45.900;6.346;2023-08-20T11:54:35;94214.00;;;28.90;35.40
65359;BME280;52491;45.900;6.346;2023-08-20T11:57:05;94208.34;;;28.91;35.71
65359;BME280;52491;45.900;6.346;2023-08-20T11:59:32;94211.31;;;28.90;35.61
65359;BME280;52491;45.900;6.346;2023-08-20T12:01:59;94205.66;;;28.91;35.42
65359;BME280;52491;45.900;6.346;2023-08-20T12:04:26;94205.38;;;28.93;35.76
65359;BME280;52491;45.900;6.346;2023-08-20T12:09:31;94215.84;;;28.94;35.94
65359;BME280;52491;45.900;6.346;2023-08-20T12:11:57;94210.47;;;28.94;36.19
65359;BME280;52491;45.900;6.346;2023-08-20T12:14:23;94209.53;;;28.80;36.36
65359;BME280;52491;45.900;6.346;2023-08-20T12:16:49;94214.09;;;28.80;36.50
65359;BME280;52491;45.900;6.346;2023-08-20T12:19:18;94214.09;;;28.80;36.05
65359;BME280;52491;45.900;6.346;2023-08-20T12:21:43;94218.38;;;28.81;36.37
65359;BME280;52491;45.900;6.346;2023-08-20T12:24:10;94214.91;;;28.80;36.35
65359;BME280;52491;45.900;6.346;2023-08-20T12:26:37;94212.22;;;28.80;36.44
65359;BME280;52491;45.900;6.346;2023-08-20T12:29:02;94217.28;;;28.82;36.47
65359;BME280;52491;45.900;6.346;2023-08-20T12:31:28;94208.97;;;28.83;36.27
65359;BME280;52491;45.900;6.346;2023-08-20T12:33:54;94213.53;;;28.83;36.11
65359;BME280;52491;45.900;6.346;2023-08-20T12:36:19;94217.00;;;28.83;36.35
65359;BME280;52491;45.900;6.346;2023-08-20T12:38:45;94215.13;;;28.84;36.23
65359;BME280;52491;45.900;6.346;2023-08-20T12:41:10;94210.84;;;28.83;36.45
65359;BME280;52491;45.900;6.346;2023-08-20T12:43:36;94208.16;;;28.83;36.29
65359;BME280;52491;45.900;6.346;2023-08-20T12:46:02;94204.41;;;28.84;36.33
65359;BME280;52491;45.900;6.346;2023-08-20T12:48:28;94204.41;;;28.84;36.18
65359;BME280;52491;45.900;6.346;2023-08-20T12:50:55;94209.75;;;28.84;36.37
65359;BME280;52491;45.900;6.346;2023-08-20T12:53:21;94204.41;;;28.84;36.77
65359;BME280;52491;45.900;6.346;2023-08-20T12:55:46;94197.66;;;28.86;36.39
65359;BME280;52491;45.900;6.346;2023-08-20T12:58:12;94196.53;;;28.92;36.61
65359;BME280;52491;45.900;6.346;2023-08-20T13:00:37;94197.84;;;28.95;36.24
65359;BME280;52491;45.900;6.346;2023-08-20T13:03:03;94195.16;;;28.95;36.62
65359;BME280;52491;45.900;6.346;2023-08-20T13:05:29;94195.94;;;28.95;36.68
65359;BME280;52491;45.900;6.346;2023-08-20T13:07:55;94195.69;;;28.97;36.61
65359;BME280;52491;45.900;6.346;2023-08-20T13:10:21;94202.63;;;28.98;36.51
65359;BME280;52491;45.900;6.346;2023-08-20T13:12:49;94198.06;;;28.98;36.88
65359;BME280;52491;45.900;6.346;2023-08-20T13:15:21;94193.53;;;28.99;37.09
65359;BME280;52491;45.900;6.346;2023-08-20T13:17:49;94195.38;;;28.98;37.32